Terminal Aerodrome Forecast
Issued by NWS

Current Version | Previous Version | Text Only | Print | Product List | Glossary On
Versions: 1 2 3 4 5 6 7 8 9 10 11 12 13 14 15 16 17
000
FTUS44 KTSA 291321 AAA
TAFFYV
TAF AMD
KFYV 291321Z 2913/3012 04003KT 6SM -TSRA BKN060CB
      TEMPO 2913/2915 4SM TSRA BR BKN035CB
     FM291500 09007KT P6SM VCSH SCT015 BKN035
      TEMPO 2916/2919 BKN025
     FM291900 10010KT P6SM OVC015
      TEMPO 2919/2923 4SM -TSRA BKN007CB
     FM292300 13010KT 4SM -TSRA BKN012CB
     FM300900 14006KT 6SM -SHRA BR OVC007 PROB30 3009/3012 4SM -TSRA
      BKN012CB=

USA.gov is the U.S. government's official web portal to all federal, state and local government web resources and services.